logo
Search for airport 
image banner adimage banner adimage banner ad
image banner ad

FAKARE - Kareedouw

Located in , South Africa

ICAO - , IATA -

Data provided by Airmate  

General information

Coordinates: S33°57'35" E24°19'26"
Elevation is 1079 feet MSL.
 
View others Airports in Eastern Cape

Operational data

Special qualification required
Current time UTC:
Current local time:
Weather at : - ( 0 km )
METAR: MMVA 181001Z 08007KT 6SM SKC 25/22 A2982 RMK HZY RTS
View NOTAMs / SUP AIP / TFR affecting this airport [VIEW]
Communications frequencies: [VIEW]

Runways:

RWY identifierQFULength (ft)Width (ft)SurfaceLDA (ft)
0314°2297164SAND
21194°2297164SAND

Airport contact information

Address: South Africa

Satellite view of FAKARE